createdAt,value
2023-11-18T00:00:55.665Z,2.4
2023-11-18T00:02:04.890Z,2.4
2023-11-18T00:03:14.024Z,2.5
2023-11-18T00:04:23.237Z,2.5
2023-11-18T00:05:32.315Z,2.4
2023-11-18T00:06:41.623Z,2.5
2023-11-18T00:07:50.668Z,2.5
2023-11-18T00:08:59.930Z,2.4
2023-11-18T00:10:08.176Z,2.4
2023-11-18T00:11:17.232Z,2.3
2023-11-18T00:12:26.471Z,2.4
2023-11-18T00:13:35.681Z,2.4
2023-11-18T00:14:44.723Z,2.4
2023-11-18T00:15:53.972Z,2.4
2023-11-18T00:17:02.109Z,2.4
2023-11-18T00:18:10.325Z,2.4
2023-11-18T00:19:19.450Z,2.6
2023-11-18T00:20:28.693Z,2.9
2023-11-18T00:21:37.834Z,3.1
2023-11-18T00:22:46.986Z,3
2023-11-18T00:23:56.210Z,2.8
2023-11-18T00:25:05.312Z,2.7
2023-11-18T00:26:14.535Z,2.8
2023-11-18T00:27:23.662Z,2.7
2023-11-18T00:28:32.835Z,3
2023-11-18T00:29:42.022Z,3.2
2023-11-18T00:30:51.209Z,3
2023-11-18T00:32:00.356Z,3
2023-11-18T00:33:09.618Z,3
2023-11-18T00:34:17.825Z,2.9
2023-11-18T00:35:26.912Z,3
2023-11-18T00:36:36.147Z,3.2
2023-11-18T00:37:45.354Z,3.1
2023-11-18T00:38:54.431Z,3
2023-11-18T00:40:02.662Z,3.1
2023-11-18T00:41:12.080Z,2.9
2023-11-18T00:42:19.983Z,2.7
2023-11-18T00:43:28.200Z,2.6
2023-11-18T00:45:46.578Z,2.7
2023-11-18T00:46:55.717Z,2.9
2023-11-18T00:48:04.925Z,3
2023-11-18T00:49:14.034Z,2.8
2023-11-18T00:50:23.218Z,2.8
2023-11-18T00:51:32.515Z,2.9
2023-11-18T00:52:41.553Z,2.7
2023-11-18T00:53:50.833Z,2.7
2023-11-18T00:54:59.898Z,2.6
2023-11-18T00:56:09.439Z,2.7
2023-11-18T00:57:18.246Z,2.9
2023-11-18T00:58:26.656Z,2.7
2023-11-18T00:59:35.671Z,2.7
2023-11-18T01:00:44.889Z,3
2023-11-18T01:01:53.941Z,3
2023-11-18T01:03:03.214Z,3
2023-11-18T01:04:12.353Z,2.8
2023-11-18T01:06:30.696Z,2.5
2023-11-18T01:07:38.934Z,2.7
2023-11-18T01:08:47.066Z,2.7
2023-11-18T01:09:56.371Z,2.7
2023-11-18T01:11:04.499Z,2.5
2023-11-18T01:12:13.822Z,2.4
2023-11-18T01:13:22.747Z,2.4
2023-11-18T01:14:32.017Z,2.4
2023-11-18T01:16:50.279Z,2.3
2023-11-18T01:19:08.608Z,2.5
2023-11-18T01:20:17.820Z,2.6
2023-11-18T01:22:36.164Z,2.7
2023-11-18T01:23:44.367Z,2.8
2023-11-18T01:24:52.508Z,2.5
2023-11-18T01:26:01.694Z,2.4
2023-11-18T01:27:10.879Z,2.4
2023-11-18T01:28:20.023Z,2.5
2023-11-18T01:29:29.201Z,2.5
2023-11-18T01:30:38.381Z,2.5
2023-11-18T01:31:47.539Z,2.6
2023-11-18T01:32:56.739Z,2.5
2023-11-18T01:34:05.928Z,2.4
2023-11-18T01:35:14.165Z,2.4
2023-11-18T01:36:22.351Z,2.2
2023-11-18T01:37:31.449Z,2.3
2023-11-18T01:38:40.622Z,2.3
2023-11-18T01:40:58.970Z,2.2
2023-11-18T01:42:08.143Z,2
2023-11-18T01:43:17.347Z,2
2023-11-18T01:44:26.492Z,2
2023-11-18T01:45:35.846Z,1.9
2023-11-18T01:46:44.868Z,2
2023-11-18T01:47:54.063Z,1.9
2023-11-18T01:49:03.202Z,1.8
2023-11-18T01:50:12.377Z,1.9
2023-11-18T01:51:20.534Z,2.1
2023-11-18T01:52:29.727Z,2.3
2023-11-18T01:53:38.884Z,2.3
2023-11-18T01:54:48.061Z,2.2
2023-11-18T01:55:57.237Z,2.1
2023-11-18T01:57:06.432Z,1.9
2023-11-18T01:58:15.579Z,2
2023-11-18T01:59:23.844Z,2
2023-11-18T02:00:31.999Z,2.4
2023-11-18T02:01:41.141Z,2.1
2023-11-18T02:02:50.323Z,2.3
2023-11-18T02:03:59.492Z,2.3
2023-11-18T02:05:08.726Z,2.2
2023-11-18T02:06:17.989Z,2.2
2023-11-18T02:07:27.112Z,2
2023-11-18T02:08:36.195Z,1.8
2023-11-18T02:10:54.561Z,1.8
2023-11-18T02:12:03.807Z,1.9
2023-11-18T02:13:12.875Z,1.8
2023-11-18T02:15:31.252Z,1.8
2023-11-18T02:16:39.451Z,1.8
2023-11-18T02:17:47.612Z,1.7
2023-11-18T02:18:56.780Z,1.7
2023-11-18T02:20:05.957Z,1.9
2023-11-18T02:21:15.151Z,2.2
2023-11-18T02:22:24.303Z,2.5
2023-11-18T02:23:33.504Z,2.5
2023-11-18T02:24:42.672Z,2.3
2023-11-18T02:25:51.864Z,2
2023-11-18T02:27:01.003Z,1.7
2023-11-18T02:28:09.167Z,1.6
2023-11-18T02:29:18.350Z,1.6
2023-11-18T02:30:26.538Z,1.6
2023-11-18T02:31:35.741Z,1.6
2023-11-18T02:32:44.889Z,2.1
2023-11-18T02:33:54.078Z,2
2023-11-18T02:36:12.427Z,2
2023-11-18T02:37:21.665Z,1.8
2023-11-18T02:38:30.797Z,1.6
2023-11-18T02:39:39.952Z,1.6
2023-11-18T02:40:49.104Z,1.6
2023-11-18T02:41:58.376Z,1.6
2023-11-18T02:43:07.444Z,1.7
2023-11-18T02:44:16.614Z,1.7
2023-11-18T02:45:24.833Z,1.8
2023-11-18T02:46:33.984Z,1.7
2023-11-18T02:47:43.154Z,1.6
2023-11-18T02:48:52.357Z,1.6
2023-11-18T02:50:01.545Z,1.6
2023-11-18T02:51:10.690Z,1.8
2023-11-18T02:52:18.904Z,1.9
2023-11-18T02:53:27.055Z,2.1
2023-11-18T02:54:36.269Z,2
2023-11-18T02:56:54.614Z,2.2
2023-11-18T02:58:03.758Z,2.3
2023-11-18T02:59:12.953Z,2.2
2023-11-18T03:00:22.112Z,2
2023-11-18T03:01:31.302Z,1.9
2023-11-18T03:02:40.464Z,1.9
2023-11-18T03:03:49.630Z,1.9
2023-11-18T03:04:58.802Z,1.8
2023-11-18T03:07:17.160Z,1.5
2023-11-18T03:08:25.356Z,1.5
2023-11-18T03:09:33.616Z,1.7
2023-11-18T03:10:42.721Z,1.8
2023-11-18T03:11:52.007Z,2.3
2023-11-18T03:13:01.061Z,2.1
2023-11-18T03:14:10.255Z,1.9
2023-11-18T03:15:19.425Z,2.1
2023-11-18T03:16:28.641Z,2
2023-11-18T03:17:37.764Z,1.8
2023-11-18T03:18:46.939Z,1.8
2023-11-18T03:19:55.122Z,1.6
2023-11-18T03:21:03.313Z,1.4
2023-11-18T03:23:20.690Z,1.6
2023-11-18T03:24:29.855Z,1.9
2023-11-18T03:25:39.028Z,1.8
2023-11-18T03:26:48.179Z,1.8
2023-11-18T03:27:57.349Z,2
2023-11-18T03:29:06.546Z,2.1
2023-11-18T03:30:15.767Z,2.1
2023-11-18T03:31:24.868Z,2
2023-11-18T03:32:34.039Z,2.2
2023-11-18T03:33:43.227Z,2.6
2023-11-18T03:34:52.408Z,2.4
2023-11-18T03:36:01.571Z,2
2023-11-18T03:37:09.965Z,1.8
2023-11-18T03:38:18.936Z,1.6
2023-11-18T03:39:28.096Z,1.6
2023-11-18T03:40:37.284Z,1.8
2023-11-18T03:41:46.457Z,1.7
2023-11-18T03:44:04.861Z,1.9
2023-11-18T03:45:14.093Z,1.7
2023-11-18T03:46:22.200Z,1.7
2023-11-18T03:47:30.352Z,1.8
2023-11-18T03:48:39.566Z,1.7
2023-11-18T03:49:48.696Z,1.6
2023-11-18T03:50:57.881Z,1.4
2023-11-18T03:52:07.107Z,1.4
2023-11-18T03:53:16.234Z,1.3
2023-11-18T03:54:25.394Z,1.2
2023-11-18T03:55:34.560Z,1.4
2023-11-18T03:56:43.770Z,1.4
2023-11-18T03:57:52.970Z,1.4
2023-11-18T03:59:02.110Z,1.6
2023-11-18T04:00:11.265Z,1.9
2023-11-18T04:01:20.425Z,2
2023-11-18T04:02:28.624Z,2.2
2023-11-18T04:03:37.807Z,2
2023-11-18T04:04:46.982Z,2.1
2023-11-18T04:05:56.136Z,1.8
2023-11-18T04:07:05.319Z,1.7
2023-11-18T04:08:14.488Z,1.7
2023-11-18T04:09:23.660Z,1.7
2023-11-18T04:10:31.973Z,1.6
2023-11-18T04:11:40.068Z,1.9
2023-11-18T04:13:57.407Z,1.8
2023-11-18T04:15:06.653Z,1.7
2023-11-18T04:16:15.764Z,1.7
2023-11-18T04:17:24.940Z,1.9
2023-11-18T04:18:34.102Z,1.7
2023-11-18T04:19:43.306Z,1.9
2023-11-18T04:20:52.477Z,2.3
2023-11-18T04:22:01.724Z,1.9
2023-11-18T04:23:10.808Z,2
2023-11-18T04:24:20.086Z,2.1
2023-11-18T04:25:29.164Z,2
2023-11-18T04:26:38.315Z,2
2023-11-18T04:27:46.527Z,2
2023-11-18T04:28:55.685Z,1.7
2023-11-18T04:30:04.872Z,1.4
2023-11-18T04:31:13.068Z,1.3
2023-11-18T04:32:22.222Z,1.2
2023-11-18T04:33:31.452Z,1.2
2023-11-18T04:34:40.578Z,1.1
2023-11-18T04:35:49.746Z,1.1
2023-11-18T04:36:57.938Z,1
2023-11-18T04:38:06.144Z,1
2023-11-18T04:39:15.312Z,1
2023-11-18T04:40:24.473Z,1.1
2023-11-18T04:41:33.659Z,1.3
2023-11-18T04:42:42.824Z,1.4
2023-11-18T04:43:51.983Z,1.5
2023-11-18T04:45:01.171Z,1.5
2023-11-18T04:46:10.498Z,1.4
2023-11-18T04:47:19.545Z,1.4
2023-11-18T04:48:28.692Z,1.4
2023-11-18T04:49:37.867Z,1.4
2023-11-18T04:50:47.051Z,1.4
2023-11-18T04:51:56.347Z,1.5
2023-11-18T04:53:04.419Z,1.4
2023-11-18T04:54:13.575Z,1.5
2023-11-18T04:55:22.763Z,1.4
2023-11-18T04:56:31.939Z,1.3
2023-11-18T04:57:41.127Z,1.4
2023-11-18T04:58:50.278Z,1.8
2023-11-18T05:01:07.609Z,1.5
2023-11-18T05:02:15.845Z,1.4
2023-11-18T05:03:24.025Z,1.5
2023-11-18T05:04:33.211Z,1.7
2023-11-18T05:05:42.361Z,1.8
2023-11-18T05:06:51.557Z,1.7
2023-11-18T05:08:00.733Z,1.7
2023-11-18T05:09:10.031Z,1.6
2023-11-18T05:10:19.066Z,1.6
2023-11-18T05:11:28.300Z,1.6
2023-11-18T05:12:37.399Z,1.5
2023-11-18T05:13:46.589Z,1.4
2023-11-18T05:14:55.768Z,1.4
2023-11-18T05:16:04.928Z,1.5
2023-11-18T05:17:14.111Z,1.7
2023-11-18T05:18:23.325Z,1.8
2023-11-18T05:19:31.545Z,1.5
2023-11-18T05:20:40.656Z,1.4
2023-11-18T05:21:49.807Z,1.4
2023-11-18T05:22:58.976Z,1.4
2023-11-18T05:24:08.173Z,1.2
2023-11-18T05:25:17.319Z,1.2
2023-11-18T05:27:35.676Z,1.4
2023-11-18T05:28:44.841Z,1.6
2023-11-18T05:29:54.004Z,1.6
2023-11-18T05:31:03.190Z,1.6
2023-11-18T05:32:12.380Z,1.4
2023-11-18T05:33:21.535Z,1.3
2023-11-18T05:34:29.743Z,1.3
2023-11-18T05:35:38.904Z,1.6
2023-11-18T05:36:48.070Z,1.7
2023-11-18T05:37:57.242Z,1.6
2023-11-18T05:39:06.452Z,1.9
2023-11-18T05:40:15.601Z,1.8
2023-11-18T05:41:24.768Z,1.9
2023-11-18T05:43:43.119Z,1.8
2023-11-18T05:44:52.343Z,1.6
2023-11-18T05:46:01.463Z,1.5
2023-11-18T05:47:10.719Z,1.6
2023-11-18T05:48:19.811Z,1.8
2023-11-18T05:49:27.998Z,1.6
2023-11-18T05:50:37.215Z,1.4
2023-11-18T05:51:46.334Z,1.5
2023-11-18T05:52:55.541Z,1.5
2023-11-18T05:54:04.694Z,1.5
2023-11-18T05:55:13.867Z,1.5
2023-11-18T05:56:23.068Z,1.6
2023-11-18T05:58:41.417Z,1.8
2023-11-18T05:59:50.555Z,1.7
2023-11-18T06:00:59.742Z,1.7
2023-11-18T06:02:09.011Z,2.1
2023-11-18T06:03:18.068Z,2.2
2023-11-18T06:04:26.272Z,2.2
2023-11-18T06:05:35.441Z,2.1
2023-11-18T06:06:44.629Z,1.9
2023-11-18T06:09:02.968Z,2.2
2023-11-18T06:10:12.121Z,2
2023-11-18T06:11:21.361Z,2.1
2023-11-18T06:12:30.482Z,1.8
2023-11-18T06:14:48.847Z,1.9
2023-11-18T06:15:57.037Z,1.9
2023-11-18T06:17:05.208Z,1.8
2023-11-18T06:18:14.386Z,1.7
2023-11-18T06:19:23.548Z,1.8
2023-11-18T06:21:42.020Z,1.8
2023-11-18T06:22:51.135Z,2.1
2023-11-18T06:24:00.258Z,2.2
2023-11-18T06:25:09.567Z,2
2023-11-18T06:26:18.591Z,1.8
2023-11-18T06:27:27.796Z,1.9
2023-11-18T06:28:36.938Z,2.2
2023-11-18T06:29:46.118Z,2
2023-11-18T06:30:55.293Z,1.9
2023-11-18T06:32:03.466Z,1.9
2023-11-18T06:33:12.642Z,1.8
2023-11-18T06:34:21.838Z,1.7
2023-11-18T06:35:31.006Z,1.6
2023-11-18T06:37:49.349Z,1.4
2023-11-18T06:38:57.687Z,1.4
2023-11-18T06:40:05.739Z,1.5
2023-11-18T06:41:13.950Z,1.7
2023-11-18T06:42:23.110Z,2
2023-11-18T06:43:32.289Z,2
2023-11-18T06:44:41.476Z,1.9
2023-11-18T06:45:50.643Z,2
2023-11-18T06:46:59.790Z,2.1
2023-11-18T06:48:08.970Z,2.2
2023-11-18T06:49:18.269Z,2.1
2023-11-18T06:50:27.315Z,2.1
2023-11-18T06:51:35.565Z,1.9
2023-11-18T06:52:44.686Z,2
2023-11-18T06:53:52.889Z,2.3
2023-11-18T06:55:02.026Z,2.3
2023-11-18T06:56:11.224Z,2
2023-11-18T06:58:29.579Z,1.9
2023-11-18T06:59:38.837Z,1.6
2023-11-18T07:00:47.912Z,1.7
2023-11-18T07:01:57.179Z,1.9
2023-11-18T07:03:06.261Z,2
2023-11-18T07:05:24.625Z,1.9
2023-11-18T07:06:32.796Z,2.2
2023-11-18T07:07:42.002Z,2.2
2023-11-18T07:08:50.264Z,2.1
2023-11-18T07:11:08.514Z,2.6
2023-11-18T07:12:17.681Z,2.5
2023-11-18T07:13:26.852Z,2.4
2023-11-18T07:14:36.033Z,2.3
2023-11-18T07:15:45.209Z,2
2023-11-18T07:16:54.361Z,1.9
2023-11-18T07:19:12.757Z,2
2023-11-18T07:20:21.914Z,2
2023-11-18T07:21:31.062Z,1.9
2023-11-18T07:23:49.432Z,2
2023-11-18T07:24:57.605Z,2.2
2023-11-18T07:26:06.790Z,2.2
2023-11-18T07:27:15.954Z,2.3
2023-11-18T07:28:25.138Z,2.4
2023-11-18T07:29:34.310Z,2.4
2023-11-18T07:30:43.476Z,2.5
2023-11-18T07:31:52.658Z,2.3
2023-11-18T07:33:01.839Z,2.4
2023-11-18T07:35:20.173Z,2.4
2023-11-18T07:36:29.336Z,2.7
2023-11-18T07:37:38.512Z,2.7
2023-11-18T07:38:47.706Z,2.7
2023-11-18T07:39:55.901Z,2.5
2023-11-18T07:41:05.066Z,2.5
2023-11-18T07:42:14.228Z,2.5
2023-11-18T07:43:23.400Z,2.4
2023-11-18T07:44:32.631Z,2.4
2023-11-18T07:45:41.784Z,2.3
2023-11-18T07:46:50.926Z,2.2
2023-11-18T07:47:59.140Z,2.3
2023-11-18T07:49:07.317Z,2.7
2023-11-18T07:50:16.484Z,3
2023-11-18T07:51:25.678Z,3.3
2023-11-18T07:52:34.837Z,3.1
2023-11-18T07:53:43.978Z,3
2023-11-18T07:54:53.159Z,2.6
2023-11-18T07:56:02.337Z,2.5
2023-11-18T07:57:11.506Z,2.4
2023-11-18T07:58:20.667Z,2.6
2023-11-18T07:59:28.883Z,2.8
2023-11-18T08:00:37.071Z,2.6
2023-11-18T08:01:46.226Z,2.4
2023-11-18T08:02:55.426Z,2.6
2023-11-18T08:04:04.583Z,2.8
2023-11-18T08:05:13.755Z,2.9
2023-11-18T08:06:22.938Z,2.9
2023-11-18T08:07:32.096Z,2.9
2023-11-18T08:08:41.276Z,3
2023-11-18T08:10:59.605Z,2.8
2023-11-18T08:12:08.781Z,2.7
2023-11-18T08:13:17.994Z,2.7
2023-11-18T08:14:27.139Z,2.6
2023-11-18T08:15:35.344Z,2.8
2023-11-18T08:16:44.562Z,3
2023-11-18T08:17:53.682Z,3.2
2023-11-18T08:19:02.854Z,3.3
2023-11-18T08:20:12.033Z,3.1
2023-11-18T08:21:21.235Z,3.1
2023-11-18T08:22:29.401Z,3
2023-11-18T08:23:37.661Z,2.9
2023-11-18T08:24:45.800Z,2.9
2023-11-18T08:25:54.962Z,2.9
2023-11-18T08:27:04.120Z,3
2023-11-18T08:28:13.283Z,3
2023-11-18T08:29:22.461Z,3.1
2023-11-18T08:30:31.660Z,3.3
2023-11-18T08:31:40.854Z,3.5
2023-11-18T08:32:50.105Z,3.4
2023-11-18T08:33:59.205Z,3.4
2023-11-18T08:35:08.337Z,3.6
2023-11-18T08:36:17.524Z,3.6
2023-11-18T08:37:26.672Z,3.3
2023-11-18T08:38:35.846Z,3.3
2023-11-18T08:39:44.042Z,3.4
2023-11-18T08:40:53.236Z,3.6
2023-11-18T08:42:02.389Z,3.4
2023-11-18T08:43:11.589Z,3.5
2023-11-18T08:44:20.732Z,3.5
2023-11-18T08:45:29.892Z,3.3
2023-11-18T08:47:47.288Z,3.4
2023-11-18T08:48:55.468Z,3.8
2023-11-18T08:50:03.676Z,3.9
2023-11-18T08:51:12.831Z,3.9
2023-11-18T08:52:22.005Z,3.9
2023-11-18T08:53:31.177Z,3.9
2023-11-18T08:54:40.431Z,3.8
2023-11-18T08:55:49.612Z,4
2023-11-18T08:56:58.712Z,3.7
2023-11-18T08:58:07.882Z,3.5
2023-11-18T08:59:17.241Z,3.3
2023-11-18T09:00:26.241Z,3.3
2023-11-18T09:01:35.501Z,4
2023-11-18T09:02:44.559Z,3.9
2023-11-18T09:03:53.743Z,4.2
2023-11-18T09:05:02.000Z,4.1
2023-11-18T09:06:11.206Z,3.9
2023-11-18T09:07:20.262Z,3.6
2023-11-18T09:08:29.450Z,3.5
2023-11-18T09:09:38.610Z,3.6
2023-11-18T09:10:47.790Z,3.7
2023-11-18T09:11:55.974Z,3.9
2023-11-18T09:13:04.175Z,4
2023-11-18T09:14:12.392Z,4.2
2023-11-18T09:15:21.535Z,4.3
2023-11-18T09:16:30.725Z,4.2
2023-11-18T09:17:39.881Z,4.7
2023-11-18T09:18:49.058Z,4.4
2023-11-18T09:19:58.229Z,4.3
2023-11-18T09:21:07.399Z,4.1
2023-11-18T09:22:16.579Z,3.8
2023-11-18T09:23:25.748Z,3.7
2023-11-18T09:24:34.908Z,3.8
2023-11-18T09:25:44.116Z,3.8
2023-11-18T09:26:53.263Z,3.9
2023-11-18T09:28:02.452Z,3.9
2023-11-18T09:29:10.639Z,4
2023-11-18T09:30:19.823Z,4.1
2023-11-18T09:31:28.981Z,4.1
2023-11-18T09:32:38.154Z,4.2
2023-11-18T09:33:47.330Z,4
2023-11-18T09:34:56.500Z,3.9
2023-11-18T09:36:05.665Z,3.9
2023-11-18T09:37:14.838Z,4
2023-11-18T09:38:24.046Z,4
2023-11-18T09:39:33.192Z,4
2023-11-18T09:40:42.372Z,4.1
2023-11-18T09:41:51.553Z,4.2
2023-11-18T09:43:00.775Z,4.3
2023-11-18T09:44:09.024Z,4.3
2023-11-18T09:45:18.070Z,4.4
2023-11-18T09:46:27.320Z,4.2
2023-11-18T09:47:36.420Z,4.2
2023-11-18T09:48:45.620Z,4.3
2023-11-18T09:49:54.755Z,4.4
2023-11-18T09:51:03.934Z,4.5
2023-11-18T09:52:12.139Z,4.6
2023-11-18T09:53:20.320Z,4.8
2023-11-18T09:54:29.516Z,4.6
2023-11-18T09:55:38.681Z,4.6
2023-11-18T09:56:47.841Z,4.6
2023-11-18T09:57:57.017Z,4.6
2023-11-18T09:59:06.233Z,4.8
2023-11-18T10:00:15.358Z,4.6
2023-11-18T10:01:24.529Z,4.7
2023-11-18T10:02:33.704Z,4.6
2023-11-18T10:03:42.995Z,4.7
2023-11-18T10:04:52.049Z,4.8
2023-11-18T10:06:01.216Z,4.9
2023-11-18T10:07:10.404Z,5
2023-11-18T10:08:18.580Z,4.7
2023-11-18T10:09:27.760Z,4.7
2023-11-18T10:10:36.919Z,4.8
2023-11-18T10:11:46.111Z,4.7
2023-11-18T10:12:55.279Z,5
2023-11-18T10:14:04.465Z,5
2023-11-18T10:15:12.649Z,5.2
2023-11-18T10:16:20.861Z,5
2023-11-18T10:17:29.085Z,5
2023-11-18T10:18:38.202Z,5.1
2023-11-18T10:19:47.374Z,5.2
2023-11-18T10:20:56.570Z,5.3
2023-11-18T10:22:05.718Z,5.2
2023-11-18T10:23:14.895Z,5.1
2023-11-18T10:24:24.063Z,5.3
2023-11-18T10:25:33.239Z,5.5
2023-11-18T10:26:42.408Z,5.5
2023-11-18T10:27:51.592Z,5.3
2023-11-18T10:29:00.763Z,5.3
2023-11-18T10:30:09.943Z,5.2
2023-11-18T10:31:19.094Z,5.5
2023-11-18T10:32:27.289Z,5.4
2023-11-18T10:33:36.469Z,5.6
2023-11-18T10:34:45.631Z,5.4
2023-11-18T10:35:54.817Z,5.2
2023-11-18T10:37:03.993Z,5.4
2023-11-18T10:38:13.145Z,5.3
2023-11-18T10:39:21.365Z,5.3
2023-11-18T10:40:29.561Z,5.3
2023-11-18T10:41:38.853Z,5.4
2023-11-18T10:42:47.892Z,5.3
2023-11-18T10:43:57.065Z,5.3
2023-11-18T10:45:06.346Z,5.4
2023-11-18T10:46:15.405Z,5.5
2023-11-18T10:47:24.582Z,5.5
2023-11-18T10:48:33.758Z,5.5
2023-11-18T10:49:42.993Z,5.7
2023-11-18T10:50:52.117Z,5.6
2023-11-18T10:52:01.275Z,5.7
2023-11-18T10:53:10.453Z,5.7
2023-11-18T10:54:19.626Z,5.8
2023-11-18T10:55:27.804Z,5.9
2023-11-18T10:56:36.995Z,5.9
2023-11-18T10:57:46.161Z,5.9
2023-11-18T10:58:55.338Z,5.9
2023-11-18T11:00:04.503Z,5.9
2023-11-18T11:01:13.669Z,6
2023-11-18T11:02:22.858Z,5.9
2023-11-18T11:03:32.089Z,6
2023-11-18T11:04:41.195Z,5.8
2023-11-18T11:05:50.381Z,5.7
2023-11-18T11:06:59.543Z,5.8
2023-11-18T11:08:08.733Z,5.7
2023-11-18T11:09:17.912Z,5.7
2023-11-18T11:10:26.088Z,5.8
2023-11-18T11:11:35.242Z,5.8
2023-11-18T11:12:44.417Z,5.7
2023-11-18T11:13:53.598Z,5.8
2023-11-18T11:15:02.804Z,5.8
2023-11-18T11:16:11.992Z,5.9
2023-11-18T11:17:21.124Z,6
2023-11-18T11:18:30.291Z,6
2023-11-18T11:19:39.461Z,5.9
2023-11-18T11:20:48.636Z,5.9
2023-11-18T11:21:57.831Z,6.1
2023-11-18T11:23:07.002Z,6
2023-11-18T11:24:16.159Z,6.1
2023-11-18T11:25:24.341Z,6
2023-11-18T11:26:33.514Z,6.1
2023-11-18T11:27:42.686Z,6.1
2023-11-18T11:28:51.851Z,6.3
2023-11-18T11:30:01.034Z,6.4
2023-11-18T11:31:10.209Z,6.4
2023-11-18T11:32:19.389Z,6.3
2023-11-18T11:33:28.551Z,6.3
2023-11-18T11:34:37.734Z,6.4
2023-11-18T11:35:46.903Z,6.5
2023-11-18T11:36:56.086Z,6.4
2023-11-18T11:38:05.268Z,6.5
2023-11-18T11:39:14.449Z,6.4
2023-11-18T11:40:22.617Z,6.4
2023-11-18T11:41:31.776Z,6.3
2023-11-18T11:42:41.120Z,6.3
2023-11-18T11:43:50.265Z,6.4
2023-11-18T11:44:59.381Z,6.5
2023-11-18T11:46:08.568Z,6.5
2023-11-18T11:47:17.641Z,6.6
2023-11-18T11:48:26.824Z,6.5
2023-11-18T11:49:35.991Z,6.4
2023-11-18T11:50:45.154Z,6.4
2023-11-18T11:51:54.340Z,6.6
2023-11-18T11:53:03.516Z,6.5
2023-11-18T11:54:12.681Z,6.5
2023-11-18T11:55:20.867Z,6.6
2023-11-18T11:56:30.054Z,6.7
2023-11-18T11:57:39.230Z,6.6
2023-11-18T11:58:48.392Z,6.6
2023-11-18T11:59:57.571Z,6.4
2023-11-18T12:01:06.739Z,6.5
2023-11-18T12:02:15.925Z,6.6
2023-11-18T12:03:25.074Z,6.6
2023-11-18T12:04:34.258Z,6.6
2023-11-18T12:05:43.421Z,6.5
2023-11-18T12:06:52.603Z,6.7
2023-11-18T12:08:01.775Z,6.8
2023-11-18T12:09:10.945Z,6.7
2023-11-18T12:10:19.136Z,6.7
2023-11-18T12:11:28.323Z,6.8
2023-11-18T12:12:37.482Z,6.7
2023-11-18T12:13:45.685Z,6.8
2023-11-18T12:14:54.853Z,6.7
2023-11-18T12:16:04.022Z,6.7
2023-11-18T12:17:13.250Z,6.8
2023-11-18T12:18:22.368Z,6.8
2023-11-18T12:19:31.551Z,6.8
2023-11-18T12:20:40.717Z,6.8
2023-11-18T12:21:49.966Z,6.6
2023-11-18T12:22:59.046Z,6.8
2023-11-18T12:24:08.243Z,6.7
2023-11-18T12:25:17.411Z,6.6
2023-11-18T12:26:26.612Z,6.7
2023-11-18T12:27:35.782Z,6.7
2023-11-18T12:28:44.022Z,6.7
2023-11-18T12:29:52.324Z,6.7
2023-11-18T12:31:00.332Z,6.7
2023-11-18T12:32:09.499Z,6.7
2023-11-18T12:33:18.682Z,6.7
2023-11-18T12:34:27.884Z,6.7
2023-11-18T12:35:37.022Z,6.8
2023-11-18T12:36:46.193Z,6.8
2023-11-18T12:37:55.377Z,6.8
2023-11-18T12:39:04.530Z,6.9
2023-11-18T12:40:13.712Z,6.9
2023-11-18T12:41:22.878Z,6.8
2023-11-18T12:42:32.064Z,6.8
2023-11-18T12:43:41.225Z,6.7
2023-11-18T12:44:50.529Z,6.7
2023-11-18T12:45:58.602Z,6.7
2023-11-18T12:47:07.763Z,6.7
2023-11-18T12:48:16.950Z,6.9
2023-11-18T12:49:26.191Z,6.9
2023-11-18T12:50:35.283Z,6.9
2023-11-18T12:51:44.460Z,6.8
2023-11-18T12:52:53.628Z,6.8
2023-11-18T12:54:02.805Z,6.8
2023-11-18T12:55:11.965Z,6.8
2023-11-18T12:56:21.152Z,6.8
2023-11-18T12:57:30.399Z,6.8
2023-11-18T12:58:39.517Z,6.9
2023-11-18T12:59:48.760Z,7
2023-11-18T13:00:56.859Z,7
2023-11-18T13:02:06.092Z,7
2023-11-18T13:03:15.198Z,7
2023-11-18T13:04:24.393Z,6.9
2023-11-18T13:05:33.568Z,7
2023-11-18T13:06:42.718Z,7
2023-11-18T13:07:51.896Z,6.9
2023-11-18T13:09:01.096Z,6.9
2023-11-18T13:11:19.422Z,6.9
2023-11-18T13:12:28.586Z,6.9
2023-11-18T13:13:37.780Z,6.9
2023-11-18T13:14:46.972Z,6.8
2023-11-18T13:15:55.139Z,6.8
2023-11-18T13:17:04.307Z,6.8
2023-11-18T13:18:13.464Z,6.8
2023-11-18T13:19:22.658Z,6.9
2023-11-18T13:20:31.840Z,7
2023-11-18T13:21:41.065Z,6.9
2023-11-18T13:22:50.346Z,6.9
2023-11-18T13:23:59.341Z,6.8
2023-11-18T13:25:08.584Z,6.9
2023-11-18T13:26:17.690Z,7
2023-11-18T13:27:26.885Z,6.9
2023-11-18T13:28:36.050Z,6.8
2023-11-18T13:29:45.309Z,6.8
2023-11-18T13:30:53.486Z,6.7
2023-11-18T13:32:02.570Z,6.8
2023-11-18T13:33:11.767Z,6.9
2023-11-18T13:34:20.939Z,6.9
2023-11-18T13:35:30.098Z,6.9
2023-11-18T13:36:39.257Z,6.8
2023-11-18T13:37:48.533Z,6.8
2023-11-18T13:38:57.594Z,6.8
2023-11-18T13:40:06.776Z,6.9
2023-11-18T13:41:15.959Z,6.9
2023-11-18T13:42:25.130Z,6.9
2023-11-18T13:43:34.311Z,6.9
2023-11-18T13:44:43.463Z,6.9
2023-11-18T13:45:51.680Z,6.9
2023-11-18T13:47:00.848Z,6.9
2023-11-18T13:48:09.997Z,6.9
2023-11-18T13:50:28.362Z,6.9
2023-11-18T13:51:37.531Z,7
2023-11-18T13:52:46.763Z,7
2023-11-18T13:53:55.867Z,7.1
2023-11-18T13:55:05.058Z,7.2
2023-11-18T13:56:14.224Z,6.9
2023-11-18T13:57:23.409Z,7
2023-11-18T13:58:32.575Z,7
2023-11-18T13:59:41.731Z,7.1
2023-11-18T14:00:49.914Z,7
2023-11-18T14:01:59.099Z,7
2023-11-18T14:03:08.349Z,7
2023-11-18T14:04:17.453Z,6.9
2023-11-18T14:05:26.619Z,7
2023-11-18T14:06:35.811Z,7.1
2023-11-18T14:07:44.976Z,7
2023-11-18T14:08:54.121Z,7
2023-11-18T14:10:03.309Z,7.2
2023-11-18T14:11:12.661Z,7.1
2023-11-18T14:12:21.779Z,7.1
2023-11-18T14:13:30.823Z,7
2023-11-18T14:14:39.992Z,7
2023-11-18T14:16:57.362Z,7.1
2023-11-18T14:18:06.532Z,7
2023-11-18T14:19:15.701Z,7
2023-11-18T14:20:24.871Z,7
2023-11-18T14:21:34.061Z,7.2
2023-11-18T14:22:43.238Z,7.2
2023-11-18T14:23:52.558Z,7.2
2023-11-18T14:25:01.561Z,7.2
2023-11-18T14:26:10.764Z,7.2
2023-11-18T14:27:19.904Z,7.1
2023-11-18T14:28:29.094Z,7.1
2023-11-18T14:30:47.522Z,7.1
2023-11-18T14:31:55.742Z,7.2
2023-11-18T14:33:04.804Z,7.1
2023-11-18T14:34:13.961Z,7.2
2023-11-18T14:35:23.174Z,7.2
2023-11-18T14:36:32.352Z,7.2
2023-11-18T14:37:41.498Z,7.1
2023-11-18T14:38:50.677Z,7.2
2023-11-18T14:39:59.827Z,7.2
2023-11-18T14:42:18.171Z,7.1
2023-11-18T14:43:27.354Z,7.2
2023-11-18T14:44:36.537Z,7.1
2023-11-18T14:45:45.742Z,7.1
2023-11-18T14:46:54.005Z,7.1
2023-11-18T14:48:03.079Z,7.1
2023-11-18T14:49:12.368Z,7
2023-11-18T14:50:21.444Z,7.2
2023-11-18T14:51:30.587Z,7.1
2023-11-18T14:52:39.755Z,7.1
2023-11-18T14:53:48.944Z,7.1
2023-11-18T14:54:58.096Z,7.1
2023-11-18T14:56:07.311Z,7.1
2023-11-18T14:57:16.444Z,7.3
2023-11-18T14:58:25.614Z,7.2
2023-11-18T14:59:34.876Z,7.1
2023-11-18T15:00:43.994Z,7.1
2023-11-18T15:01:52.144Z,7.3
2023-11-18T15:03:01.430Z,7.2
2023-11-18T15:04:10.501Z,7.1
2023-11-18T15:05:19.679Z,7.1
2023-11-18T15:06:28.894Z,7.2
2023-11-18T15:08:47.401Z,7.3
2023-11-18T15:09:56.562Z,7.2
2023-11-18T15:11:05.562Z,7.2
2023-11-18T15:12:14.872Z,7.2
2023-11-18T15:13:24.016Z,7.2
2023-11-18T15:14:33.224Z,7.1
2023-11-18T15:15:42.239Z,7.1
2023-11-18T15:16:50.487Z,7.1
2023-11-18T15:17:58.609Z,7.2
2023-11-18T15:19:06.805Z,7.1
2023-11-18T15:20:15.981Z,7.1
2023-11-18T15:21:25.280Z,7.2
2023-11-18T15:22:34.339Z,7.1
2023-11-18T15:23:43.506Z,7.1
2023-11-18T15:24:52.688Z,7.1
2023-11-18T15:26:01.918Z,7.2
2023-11-18T15:27:11.058Z,7.1
2023-11-18T15:28:20.213Z,7.1
2023-11-18T15:29:29.356Z,7.1
2023-11-18T15:30:38.538Z,7.1
2023-11-18T15:31:47.727Z,7.1
2023-11-18T15:32:56.886Z,7.1
2023-11-18T15:34:05.218Z,7.2
2023-11-18T15:35:14.340Z,7.2
2023-11-18T15:36:23.477Z,7.2
2023-11-18T15:37:32.587Z,7.2
2023-11-18T15:38:41.791Z,7.2
2023-11-18T15:39:50.947Z,7.2
2023-11-18T15:41:00.128Z,7.1
2023-11-18T15:42:09.296Z,7.1
2023-11-18T15:43:18.562Z,7.1
2023-11-18T15:44:28.031Z,7.1
2023-11-18T15:45:37.144Z,7
2023-11-18T15:46:45.962Z,7.1
2023-11-18T15:47:55.122Z,7.1
2023-11-18T15:49:03.545Z,7.1
2023-11-18T15:50:12.672Z,7.1
2023-11-18T15:51:20.907Z,7.1
2023-11-18T15:52:28.894Z,7.1
2023-11-18T15:53:38.225Z,7.1
2023-11-18T15:54:47.354Z,7.1
2023-11-18T15:55:55.762Z,7.2
2023-11-18T15:57:04.712Z,7.2
2023-11-18T15:58:13.985Z,7.1
2023-11-18T15:59:22.973Z,7.1
2023-11-18T16:00:32.273Z,7.1
2023-11-18T16:01:41.338Z,7.1
2023-11-18T16:02:50.480Z,7.1
2023-11-18T16:03:59.651Z,7
2023-11-18T16:05:07.898Z,7
2023-11-18T16:06:17.025Z,7
2023-11-18T16:07:26.372Z,7.1
2023-11-18T16:09:44.538Z,7.1
2023-11-18T16:10:53.999Z,7.1
2023-11-18T16:12:02.933Z,7.1
2023-11-18T16:13:12.143Z,7.2
2023-11-18T16:14:21.229Z,7.2
2023-11-18T16:15:30.400Z,7
2023-11-18T16:16:39.604Z,7.1
2023-11-18T16:17:48.771Z,7.2
2023-11-18T16:18:57.906Z,7.2
2023-11-18T16:20:06.120Z,7.1
2023-11-18T16:21:15.485Z,7.1
2023-11-18T16:22:24.461Z,7
2023-11-18T16:23:33.623Z,7
2023-11-18T16:24:42.779Z,6.9
2023-11-18T16:25:52.090Z,7
2023-11-18T16:27:01.147Z,7.1
2023-11-18T16:28:10.298Z,7
2023-11-18T16:29:19.527Z,6.9
2023-11-18T16:30:28.729Z,6.9
2023-11-18T16:31:37.827Z,6.9
2023-11-18T16:32:47.020Z,6.9
2023-11-18T16:33:56.194Z,6.8
2023-11-18T16:35:04.486Z,7
2023-11-18T16:36:13.593Z,6.9
2023-11-18T16:37:22.755Z,6.9
2023-11-18T16:38:32.004Z,6.9
2023-11-18T16:39:41.071Z,6.9
2023-11-18T16:40:50.399Z,6.9
2023-11-18T16:41:59.404Z,6.9